createdAt,value
2023-02-20T00:01:54.374Z,6.80
2023-02-20T00:04:11.191Z,6.50
2023-02-20T00:06:28.885Z,6.00
2023-02-20T00:08:45.740Z,5.90
2023-02-20T00:11:02.100Z,5.63
2023-02-20T00:13:18.519Z,5.30
2023-02-20T00:15:35.172Z,5.25
2023-02-20T00:17:51.692Z,5.85
2023-02-20T00:20:08.204Z,5.15
2023-02-20T00:22:27.538Z,5.25
2023-02-20T00:24:43.964Z,5.68
2023-02-20T00:27:00.783Z,5.88
2023-02-20T00:29:17.362Z,5.50
2023-02-20T00:31:33.863Z,8.18
2023-02-20T00:33:50.361Z,6.97
2023-02-20T00:36:06.712Z,7.40
2023-02-20T00:38:23.137Z,6.75
2023-02-20T00:40:39.789Z,5.72
2023-02-20T00:42:56.195Z,6.00
2023-02-20T00:45:12.574Z,5.68
2023-02-20T00:47:29.221Z,5.45
2023-02-20T00:49:45.918Z,5.82
2023-02-20T00:52:02.635Z,5.45
2023-02-20T00:54:19.424Z,6.10
2023-02-20T00:56:35.943Z,5.80
2023-02-20T00:58:52.683Z,5.57
2023-02-20T01:01:09.117Z,5.35
2023-02-20T01:03:25.432Z,5.80
2023-02-20T01:05:42.366Z,5.57
2023-02-20T01:07:59.171Z,5.78
2023-02-20T01:10:15.405Z,5.07
2023-02-20T01:12:31.943Z,5.30
2023-02-20T01:14:48.684Z,5.75
2023-02-20T01:17:05.436Z,5.30
2023-02-20T01:19:21.894Z,5.43
2023-02-20T01:21:38.658Z,5.47
2023-02-20T01:23:55.145Z,5.55
2023-02-20T01:26:11.813Z,5.20
2023-02-20T01:28:28.505Z,5.22
2023-02-20T01:30:44.968Z,5.18
2023-02-20T01:33:01.311Z,5.40
2023-02-20T01:35:17.773Z,5.13
2023-02-20T01:37:34.272Z,5.00
2023-02-20T01:39:50.572Z,5.18
2023-02-20T01:42:06.875Z,5.70
2023-02-20T01:44:23.355Z,5.03
2023-02-20T01:46:39.923Z,5.60
2023-02-20T01:48:56.480Z,5.60
2023-02-20T01:51:12.877Z,5.18
2023-02-20T01:53:29.330Z,5.97
2023-02-20T01:55:45.765Z,7.05
2023-02-20T01:58:02.115Z,6.72
2023-02-20T02:00:18.371Z,6.10
2023-02-20T02:02:35.017Z,5.75
2023-02-20T02:04:51.373Z,6.10
2023-02-20T02:07:08.104Z,5.95
2023-02-20T02:09:24.635Z,5.75
2023-02-20T02:11:41.103Z,5.95
2023-02-20T02:13:57.458Z,5.85
2023-02-20T02:16:14.112Z,6.13
2023-02-20T02:18:30.609Z,6.28
2023-02-20T02:20:46.932Z,6.45
2023-02-20T02:23:03.379Z,5.53
2023-02-20T02:25:20.093Z,6.22
2023-02-20T02:27:36.506Z,5.50
2023-02-20T02:29:52.960Z,5.90
2023-02-20T02:32:09.470Z,5.45
2023-02-20T02:34:25.850Z,5.93
2023-02-20T02:36:42.278Z,6.10
2023-02-20T02:38:58.609Z,6.63
2023-02-20T02:41:15.170Z,6.28
2023-02-20T02:43:31.872Z,6.00
2023-02-20T02:45:48.267Z,6.20
2023-02-20T02:48:04.611Z,5.85
2023-02-20T02:50:21.016Z,6.30
2023-02-20T02:52:37.500Z,6.30
2023-02-20T02:54:53.896Z,5.97
2023-02-20T02:57:10.236Z,5.68
2023-02-20T02:59:26.501Z,5.20
2023-02-20T03:01:42.962Z,6.20
2023-02-20T03:03:59.392Z,5.95
2023-02-20T03:06:15.726Z,5.72
2023-02-20T03:08:32.057Z,5.75
2023-02-20T03:10:48.409Z,5.75
2023-02-20T03:13:04.755Z,5.82
2023-02-20T03:15:21.491Z,5.20
2023-02-20T03:17:37.891Z,5.70
2023-02-20T03:19:54.570Z,5.30
2023-02-20T03:22:10.977Z,5.45
2023-02-20T03:24:27.419Z,5.38
2023-02-20T03:26:44.149Z,5.63
2023-02-20T03:29:00.952Z,5.68
2023-02-20T03:31:17.464Z,5.70
2023-02-20T03:33:33.946Z,5.90
2023-02-20T03:35:50.294Z,5.32
2023-02-20T03:38:07.010Z,5.88
2023-02-20T03:40:23.546Z,5.40
2023-02-20T03:42:40.032Z,5.60
2023-02-20T03:44:56.394Z,5.55
2023-02-20T03:47:13.118Z,5.70
2023-02-20T03:49:29.650Z,5.95
2023-02-20T03:51:46.328Z,5.57
2023-02-20T03:54:02.742Z,5.82
2023-02-20T03:56:19.059Z,6.05
2023-02-20T03:58:35.602Z,5.60
2023-02-20T04:00:52.013Z,5.70
2023-02-20T04:03:08.399Z,5.75
2023-02-20T04:05:25.135Z,6.20
2023-02-20T04:07:41.615Z,5.70
2023-02-20T04:09:58.103Z,5.90
2023-02-20T04:12:14.566Z,5.85
2023-02-20T04:14:30.908Z,5.18
2023-02-20T04:16:47.401Z,5.15
2023-02-20T04:19:03.675Z,5.50
2023-02-20T04:21:20.050Z,5.35
2023-02-20T04:23:36.545Z,5.40
2023-02-20T04:25:52.990Z,5.32
2023-02-20T04:28:09.353Z,5.55
2023-02-20T04:30:25.849Z,5.63
2023-02-20T04:32:42.556Z,5.28
2023-02-20T04:34:59.040Z,4.93
2023-02-20T04:37:15.375Z,5.43
2023-02-20T04:39:31.713Z,4.93
2023-02-20T04:41:48.170Z,5.45
2023-02-20T04:44:04.451Z,6.10
2023-02-20T04:46:20.875Z,5.35
2023-02-20T04:48:37.344Z,5.20
2023-02-20T04:50:53.698Z,5.68
2023-02-20T04:53:10.032Z,5.47
2023-02-20T04:55:26.698Z,5.80
2023-02-20T04:57:43.431Z,5.47
2023-02-20T04:59:59.852Z,5.82
2023-02-20T05:02:16.318Z,5.07
2023-02-20T05:04:32.664Z,5.70
2023-02-20T05:06:49.104Z,5.03
2023-02-20T05:09:05.575Z,5.63
2023-02-20T05:11:21.892Z,5.63
2023-02-20T05:13:38.345Z,5.60
2023-02-20T05:15:55.137Z,5.35
2023-02-20T05:18:11.473Z,5.55
2023-02-20T05:20:27.924Z,5.70
2023-02-20T05:22:44.349Z,5.80
2023-02-20T05:25:00.752Z,5.43
2023-02-20T05:27:17.455Z,5.65
2023-02-20T05:29:33.860Z,5.28
2023-02-20T05:31:50.480Z,5.30
2023-02-20T05:34:07.010Z,4.97
2023-02-20T05:36:23.699Z,5.43
2023-02-20T05:38:40.074Z,5.13
2023-02-20T05:40:56.604Z,5.40
2023-02-20T05:43:13.083Z,5.00
2023-02-20T05:45:29.411Z,5.53
2023-02-20T05:47:45.826Z,5.10
2023-02-20T05:50:02.496Z,5.60
2023-02-20T05:52:19.144Z,5.60
2023-02-20T05:54:35.935Z,5.70
2023-02-20T05:56:52.370Z,6.15
2023-02-20T05:59:08.662Z,24.48
2023-02-20T06:01:25.096Z,10.88
2023-02-20T06:03:41.571Z,8.15
2023-02-20T06:05:57.817Z,8.05
2023-02-20T06:08:14.516Z,6.95
2023-02-20T06:10:30.906Z,5.75
2023-02-20T06:12:47.662Z,15.93
2023-02-20T06:15:03.969Z,11.15
2023-02-20T06:17:20.365Z,13.15
2023-02-20T06:19:36.608Z,9.50
2023-02-20T06:21:53.560Z,12.13
2023-02-20T06:24:10.323Z,11.75
2023-02-20T06:26:26.755Z,11.35
2023-02-20T06:28:43.221Z,10.38
2023-02-20T06:31:01.765Z,10.20
2023-02-20T06:33:18.420Z,11.25
2023-02-20T06:35:35.028Z,7.35
2023-02-20T06:37:51.753Z,6.13
2023-02-20T06:40:08.215Z,7.90
2023-02-20T06:42:24.545Z,6.22
2023-02-20T06:44:41.164Z,6.00
2023-02-20T06:46:57.945Z,6.03
2023-02-20T06:49:14.342Z,7.15
2023-02-20T06:51:31.102Z,8.68
2023-02-20T06:56:20.913Z,10.90
2023-02-20T06:58:37.188Z,9.07
2023-02-20T07:00:53.882Z,9.10
2023-02-20T07:03:10.555Z,8.73
2023-02-20T07:05:27.257Z,9.25
2023-02-20T07:07:43.775Z,7.97
2023-02-20T07:10:00.182Z,11.15
2023-02-20T07:12:16.681Z,16.27
2023-02-20T07:14:33.405Z,11.48
2023-02-20T07:16:50.200Z,16.65
2023-02-20T07:19:06.922Z,11.40
2023-02-20T07:21:24.314Z,9.23
2023-02-20T07:23:40.636Z,9.65
2023-02-20T07:25:57.420Z,11.48
2023-02-20T07:28:14.133Z,10.32
2023-02-20T07:30:31.088Z,11.82
2023-02-20T07:32:47.649Z,13.55
2023-02-20T07:35:08.176Z,12.25
2023-02-20T07:37:25.688Z,10.60
2023-02-20T07:39:42.153Z,11.52
2023-02-20T07:41:58.483Z,10.52
2023-02-20T07:44:15.126Z,10.43
2023-02-20T07:46:31.784Z,9.57
2023-02-20T07:48:48.217Z,9.35
2023-02-20T07:51:04.600Z,9.40
2023-02-20T07:53:21.263Z,10.32
2023-02-20T07:55:37.617Z,9.82
2023-02-20T07:57:53.977Z,9.23
2023-02-20T08:00:10.431Z,8.70
2023-02-20T08:02:26.914Z,9.07
2023-02-20T08:04:43.604Z,8.85
2023-02-20T08:06:59.939Z,8.65
2023-02-20T08:09:16.376Z,8.85
2023-02-20T08:11:32.707Z,9.65
2023-02-20T08:13:49.122Z,9.43
2023-02-20T08:16:05.670Z,8.50
2023-02-20T08:18:23.990Z,8.80
2023-02-20T08:20:40.807Z,8.05
2023-02-20T08:22:57.236Z,8.75
2023-02-20T08:25:13.715Z,8.20
2023-02-20T08:27:30.018Z,9.52
2023-02-20T08:29:46.747Z,12.25
2023-02-20T08:32:03.507Z,14.77
2023-02-20T08:34:20.006Z,17.60
2023-02-20T08:36:36.328Z,17.83
2023-02-20T08:38:52.698Z,17.85
2023-02-20T08:41:09.113Z,18.58
2023-02-20T08:43:27.877Z,17.75
2023-02-20T08:45:44.701Z,17.83
2023-02-20T08:48:01.464Z,17.60
2023-02-20T08:50:17.753Z,16.02
2023-02-20T08:52:34.268Z,15.73
2023-02-20T08:54:50.737Z,14.32
2023-02-20T08:57:07.187Z,12.40
2023-02-20T08:59:23.843Z,13.50
2023-02-20T09:01:40.391Z,13.07
2023-02-20T09:03:57.143Z,13.57
2023-02-20T09:06:14.065Z,12.90
2023-02-20T09:08:30.930Z,13.55
2023-02-20T09:10:47.510Z,12.88
2023-02-20T09:13:03.854Z,13.57
2023-02-20T09:15:20.607Z,13.07
2023-02-20T09:17:37.038Z,12.70
2023-02-20T09:19:53.393Z,13.82
2023-02-20T09:22:10.121Z,14.43
2023-02-20T09:24:26.846Z,16.48
2023-02-20T09:26:43.188Z,11.65
2023-02-20T09:28:59.661Z,13.38
2023-02-20T09:31:16.103Z,11.90
2023-02-20T09:33:32.482Z,10.80
2023-02-20T09:35:48.891Z,12.38
2023-02-20T09:38:05.595Z,12.65
2023-02-20T09:40:22.066Z,11.07
2023-02-20T09:42:38.764Z,12.90
2023-02-20T09:44:55.252Z,10.75
2023-02-20T09:47:11.732Z,11.85
2023-02-20T09:49:28.229Z,11.43
2023-02-20T09:51:44.715Z,10.77
2023-02-20T09:54:01.521Z,10.90
2023-02-20T09:56:17.951Z,11.32
2023-02-20T09:58:34.325Z,10.50
2023-02-20T10:00:51.122Z,10.10
2023-02-20T10:03:07.727Z,10.50
2023-02-20T10:05:24.081Z,9.93
2023-02-20T10:07:40.813Z,12.15
2023-02-20T10:09:57.266Z,12.02
2023-02-20T10:12:13.684Z,8.82
2023-02-20T10:14:30.354Z,8.60
2023-02-20T10:16:46.728Z,8.13
2023-02-20T10:19:03.478Z,8.63
2023-02-20T10:21:19.910Z,8.93
2023-02-20T10:23:36.675Z,8.30
2023-02-20T10:25:53.326Z,7.97
2023-02-20T10:28:09.652Z,8.18
2023-02-20T10:30:26.010Z,8.35
2023-02-20T10:32:42.675Z,8.40
2023-02-20T10:34:59.122Z,8.32
2023-02-20T10:37:15.906Z,8.40
2023-02-20T10:39:32.310Z,8.93
2023-02-20T10:41:48.765Z,8.32
2023-02-20T10:44:05.101Z,6.93
2023-02-20T10:46:21.676Z,6.13
2023-02-20T10:48:38.366Z,5.60
2023-02-20T10:50:54.681Z,5.55
2023-02-20T10:53:11.343Z,5.10
2023-02-20T10:55:27.780Z,4.90
2023-02-20T10:57:44.031Z,5.03
2023-02-20T11:00:00.762Z,5.50
2023-02-20T11:02:17.268Z,5.05
2023-02-20T11:04:34.094Z,4.75
2023-02-20T11:06:50.410Z,4.45
2023-02-20T11:09:07.088Z,5.30
2023-02-20T11:11:23.528Z,5.03
2023-02-20T11:13:40.054Z,4.65
2023-02-20T11:15:56.434Z,4.60
2023-02-20T11:18:12.839Z,4.85
2023-02-20T11:20:29.284Z,4.50
2023-02-20T11:22:45.722Z,5.13
2023-02-20T11:25:02.447Z,4.72
2023-02-20T11:27:18.758Z,4.28
2023-02-20T11:29:35.215Z,4.55
2023-02-20T11:31:51.890Z,4.47
2023-02-20T11:34:08.644Z,4.30
2023-02-20T11:36:25.022Z,3.90
2023-02-20T11:38:41.762Z,3.83
2023-02-20T11:40:58.181Z,3.85
2023-02-20T11:43:14.909Z,3.90
2023-02-20T11:45:31.363Z,4.30
2023-02-20T11:47:47.677Z,4.28
2023-02-20T11:50:18.135Z,3.75
2023-02-20T11:52:35.168Z,4.38
2023-02-20T11:54:51.597Z,3.72
2023-02-20T11:57:08.356Z,3.97
2023-02-20T11:59:25.066Z,3.88
2023-02-20T12:01:43.316Z,3.60
2023-02-20T12:04:01.423Z,4.13
2023-02-20T12:06:18.112Z,3.50
2023-02-20T12:08:34.577Z,3.60
2023-02-20T12:10:51.237Z,3.50
2023-02-20T12:13:07.714Z,3.10
2023-02-20T12:15:24.381Z,3.00
2023-02-20T12:17:40.727Z,3.42
2023-02-20T12:19:57.407Z,3.45
2023-02-20T12:22:14.160Z,3.45
2023-02-20T12:24:30.592Z,3.03
2023-02-20T12:26:47.108Z,3.00
2023-02-20T12:29:03.779Z,3.20
2023-02-20T12:31:20.691Z,3.05
2023-02-20T12:33:37.100Z,2.85
2023-02-20T12:35:53.557Z,3.03
2023-02-20T12:38:10.219Z,2.88
2023-02-20T12:40:26.500Z,3.10
2023-02-20T12:42:42.934Z,3.00
2023-02-20T12:44:59.270Z,3.28
2023-02-20T12:47:15.736Z,3.42
2023-02-20T12:49:32.133Z,3.28
2023-02-20T12:51:48.897Z,3.22
2023-02-20T12:54:05.255Z,2.90
2023-02-20T12:56:21.762Z,2.92
2023-02-20T12:58:38.218Z,3.35
2023-02-20T13:00:54.513Z,3.40
2023-02-20T13:03:11.041Z,3.75
2023-02-20T13:05:27.708Z,4.30
2023-02-20T13:07:44.032Z,3.53
2023-02-20T13:10:00.368Z,4.20
2023-02-20T13:12:16.681Z,3.00
2023-02-20T13:14:33.155Z,2.75
2023-02-20T13:16:49.843Z,3.15
2023-02-20T13:19:06.291Z,4.03
2023-02-20T13:21:22.816Z,2.75
2023-02-20T13:23:41.820Z,3.13
2023-02-20T13:25:58.455Z,2.53
2023-02-20T13:28:14.950Z,8.80
2023-02-20T13:30:31.471Z,3.65
2023-02-20T13:32:48.110Z,5.45
2023-02-20T13:35:04.608Z,4.90
2023-02-20T13:37:21.080Z,3.88
2023-02-20T13:39:37.471Z,4.10
2023-02-20T13:41:54.211Z,4.15
2023-02-20T13:44:10.795Z,3.50
2023-02-20T13:46:27.479Z,3.25
2023-02-20T13:48:45.241Z,2.85
2023-02-20T13:51:01.637Z,3.00
2023-02-20T13:53:18.074Z,2.53
2023-02-20T13:55:34.448Z,3.40
2023-02-20T13:57:50.831Z,4.30
2023-02-20T14:00:07.604Z,2.88
2023-02-20T14:02:24.329Z,3.33
2023-02-20T14:04:41.060Z,2.53
2023-02-20T14:06:59.097Z,3.67
2023-02-20T14:09:16.114Z,4.57
2023-02-20T14:11:32.572Z,3.13
2023-02-20T14:13:49.078Z,3.00
2023-02-20T14:16:05.451Z,6.95
2023-02-20T14:18:21.950Z,9.82
2023-02-20T14:20:38.466Z,4.00
2023-02-20T14:22:54.980Z,6.30
2023-02-20T14:25:12.417Z,4.07
2023-02-20T14:27:28.731Z,6.72
2023-02-20T14:29:45.115Z,4.90
2023-02-20T14:32:01.663Z,3.47
2023-02-20T14:34:18.436Z,2.10
2023-02-20T14:36:34.885Z,5.00
2023-02-20T14:38:52.619Z,2.92
2023-02-20T14:41:09.298Z,3.90
2023-02-20T14:43:25.781Z,2.90
2023-02-20T14:45:42.280Z,3.72
2023-02-20T14:47:58.980Z,2.90
2023-02-20T14:50:15.302Z,4.45
2023-02-20T14:52:32.029Z,2.90
2023-02-20T14:54:48.545Z,2.65
2023-02-20T14:57:05.298Z,2.47
2023-02-20T14:59:22.036Z,2.75
2023-02-20T15:01:38.573Z,2.53
2023-02-20T15:03:54.951Z,2.90
2023-02-20T15:06:11.617Z,2.40
2023-02-20T15:08:28.330Z,2.33
2023-02-20T15:10:44.701Z,2.47
2023-02-20T15:13:01.245Z,2.50
2023-02-20T15:15:19.413Z,2.95
2023-02-20T15:17:35.889Z,2.17
2023-02-20T15:19:52.441Z,2.30
2023-02-20T15:22:08.972Z,3.78
2023-02-20T15:24:25.321Z,6.72
2023-02-20T15:26:41.641Z,11.63
2023-02-20T15:28:58.524Z,3.03
2023-02-20T15:31:15.300Z,3.03
2023-02-20T15:33:31.738Z,2.60
2023-02-20T15:35:48.280Z,2.33
2023-02-20T15:38:04.829Z,5.72
2023-02-20T15:40:21.343Z,3.45
2023-02-20T15:42:37.709Z,2.90
2023-02-20T15:44:54.370Z,5.20
2023-02-20T15:47:11.107Z,8.18
2023-02-20T15:49:27.580Z,4.40
2023-02-20T15:51:44.242Z,5.70
2023-02-20T15:54:00.935Z,3.15
2023-02-20T15:56:17.576Z,8.63
2023-02-20T15:58:35.599Z,4.75
2023-02-20T16:00:52.102Z,3.47
2023-02-20T16:03:08.621Z,3.58
2023-02-20T16:05:25.101Z,5.20
2023-02-20T16:07:41.442Z,5.45
2023-02-20T16:09:57.847Z,5.40
2023-02-20T16:12:14.405Z,3.70
2023-02-20T16:14:30.754Z,3.58
2023-02-20T16:16:47.547Z,3.47
2023-02-20T16:19:04.288Z,12.90
2023-02-20T16:21:20.844Z,13.90
2023-02-20T16:23:37.600Z,10.73
2023-02-20T16:25:54.068Z,6.03
2023-02-20T16:28:10.791Z,5.47
2023-02-20T16:30:33.170Z,7.15
2023-02-20T16:32:50.473Z,5.82
2023-02-20T16:35:07.028Z,6.38
2023-02-20T16:37:23.542Z,5.50
2023-02-20T16:39:40.032Z,4.47
2023-02-20T16:41:56.786Z,3.33
2023-02-20T16:44:13.287Z,5.35
2023-02-20T16:46:38.326Z,7.25
2023-02-20T16:48:55.415Z,7.38
2023-02-20T16:51:11.909Z,4.65
2023-02-20T16:53:29.649Z,3.58
2023-02-20T16:55:46.011Z,3.40
2023-02-20T16:58:02.365Z,4.35
2023-02-20T17:00:19.056Z,3.85
2023-02-20T17:02:35.525Z,3.83
2023-02-20T17:04:52.359Z,3.50
2023-02-20T17:07:09.307Z,3.17
2023-02-20T17:09:33.874Z,2.63
2023-02-20T17:11:57.277Z,3.00
2023-02-20T17:14:14.518Z,2.70
2023-02-20T17:16:32.121Z,2.42
2023-02-20T17:18:48.619Z,2.80
2023-02-20T17:21:05.059Z,4.15
2023-02-20T17:23:21.487Z,4.88
2023-02-20T17:25:37.891Z,4.88
2023-02-20T17:27:54.341Z,3.50
2023-02-20T17:30:10.704Z,5.25
2023-02-20T17:32:27.062Z,5.50
2023-02-20T17:34:43.632Z,4.55
2023-02-20T17:37:01.381Z,4.00
2023-02-20T17:39:17.909Z,3.42
2023-02-20T17:41:34.633Z,3.10
2023-02-20T17:43:50.936Z,3.20
2023-02-20T17:46:07.609Z,3.20
2023-02-20T17:48:23.931Z,4.03
2023-02-20T17:50:40.292Z,3.53
2023-02-20T17:52:56.653Z,3.72
2023-02-20T17:55:12.985Z,3.90
2023-02-20T17:57:29.278Z,5.15
2023-02-20T17:59:45.588Z,4.00
2023-02-20T18:02:02.565Z,4.93
2023-02-20T18:04:21.028Z,4.78
2023-02-20T18:06:38.096Z,4.65
2023-02-20T18:08:54.460Z,4.47
2023-02-20T18:11:10.787Z,4.70
2023-02-20T18:13:27.202Z,4.97
2023-02-20T18:15:43.904Z,5.65
2023-02-20T18:18:00.332Z,14.38
2023-02-20T18:20:16.971Z,9.43
2023-02-20T18:22:33.332Z,10.82
2023-02-20T18:24:50.727Z,9.63
2023-02-20T18:27:07.176Z,11.88
2023-02-20T18:29:23.630Z,11.30
2023-02-20T18:31:40.065Z,14.00
2023-02-20T18:33:56.803Z,15.60
2023-02-20T18:36:13.141Z,19.45
2023-02-20T18:38:29.521Z,46.95
2023-02-20T18:40:46.281Z,23.08
2023-02-20T18:43:02.937Z,33.42
2023-02-20T18:45:21.758Z,28.48
2023-02-20T18:47:39.760Z,19.75
2023-02-20T18:49:56.512Z,16.23
2023-02-20T18:52:12.921Z,15.60
2023-02-20T18:54:29.159Z,20.90
2023-02-20T18:56:45.847Z,19.23
2023-02-20T18:59:02.322Z,15.55
2023-02-20T19:01:18.797Z,14.77
2023-02-20T19:03:35.117Z,18.58
2023-02-20T19:05:51.826Z,16.17
2023-02-20T19:08:08.590Z,12.48
2023-02-20T19:10:24.930Z,8.70
2023-02-20T19:12:41.904Z,6.75
2023-02-20T19:14:58.251Z,6.50
2023-02-20T19:17:14.657Z,6.22
2023-02-20T19:19:31.401Z,5.07
2023-02-20T19:21:47.800Z,5.07
2023-02-20T19:24:04.126Z,4.90
2023-02-20T19:26:20.632Z,4.72
2023-02-20T19:28:37.060Z,5.82
2023-02-20T19:30:53.392Z,5.05
2023-02-20T19:33:10.132Z,5.45
2023-02-20T19:35:26.546Z,4.80
2023-02-20T19:37:43.307Z,4.88
2023-02-20T19:39:59.877Z,4.82
2023-02-20T19:42:16.864Z,4.32
2023-02-20T19:44:33.438Z,4.90
2023-02-20T19:46:49.932Z,4.47
2023-02-20T19:49:06.339Z,4.22
2023-02-20T19:51:23.051Z,4.22
2023-02-20T19:53:39.811Z,4.43
2023-02-20T19:55:56.314Z,3.88
2023-02-20T19:58:12.900Z,3.97
2023-02-20T20:00:29.232Z,5.00
2023-02-20T20:02:45.945Z,4.40
2023-02-20T20:05:02.304Z,3.83
2023-02-20T20:07:18.993Z,4.50
2023-02-20T20:09:37.502Z,4.93
2023-02-20T20:11:54.358Z,5.28
2023-02-20T20:14:11.116Z,5.65
2023-02-20T20:16:27.491Z,5.43
2023-02-20T20:18:44.032Z,5.50
2023-02-20T20:21:00.498Z,5.45
2023-02-20T20:23:17.140Z,4.68
2023-02-20T20:25:33.613Z,4.57
2023-02-20T20:27:50.293Z,5.00
2023-02-20T20:30:07.139Z,5.00
2023-02-20T20:32:24.010Z,4.78
2023-02-20T20:34:40.447Z,5.30
2023-02-20T20:36:56.974Z,5.80
2023-02-20T20:39:13.754Z,5.43
2023-02-20T20:41:39.397Z,5.55
2023-02-20T20:43:56.322Z,5.78
2023-02-20T20:46:13.013Z,5.53
2023-02-20T20:48:29.440Z,6.20
2023-02-20T20:50:45.888Z,6.38
2023-02-20T20:53:02.603Z,7.28
2023-02-20T20:55:19.078Z,7.10
2023-02-20T20:57:35.851Z,6.47
2023-02-20T20:59:52.547Z,6.72
2023-02-20T21:02:09.008Z,6.30
2023-02-20T21:04:25.442Z,6.80
2023-02-20T21:06:41.916Z,7.05
2023-02-20T21:08:59.011Z,5.90
2023-02-20T21:11:15.609Z,5.35
2023-02-20T21:13:32.154Z,6.28
2023-02-20T21:15:48.531Z,5.85
2023-02-20T21:18:04.950Z,6.00
2023-02-20T21:20:21.448Z,5.68
2023-02-20T21:22:38.058Z,6.10
2023-02-20T21:24:54.413Z,6.47
2023-02-20T21:27:11.146Z,6.18
2023-02-20T21:29:27.594Z,6.55
2023-02-20T21:31:44.144Z,6.85
2023-02-20T21:34:00.568Z,5.47
2023-02-20T21:36:16.944Z,5.50
2023-02-20T21:38:33.376Z,6.50
2023-02-20T21:40:49.684Z,6.20
2023-02-20T21:43:06.099Z,6.22
2023-02-20T21:45:22.431Z,5.80
2023-02-20T21:47:38.937Z,5.47
2023-02-20T21:49:55.587Z,4.55
2023-02-20T21:52:12.061Z,4.43
2023-02-20T21:54:28.580Z,5.32
2023-02-20T21:56:44.949Z,5.22
2023-02-20T21:59:01.668Z,5.22
2023-02-20T22:01:18.471Z,4.50
2023-02-20T22:03:34.953Z,4.35
2023-02-20T22:05:51.665Z,5.00
2023-02-20T22:08:08.067Z,4.90
2023-02-20T22:10:24.456Z,4.50
2023-02-20T22:12:41.229Z,4.72
2023-02-20T22:14:57.671Z,4.93
2023-02-20T22:17:14.387Z,5.25
2023-02-20T22:19:30.930Z,5.28
2023-02-20T22:21:47.352Z,5.20
2023-02-20T22:24:04.108Z,5.45
2023-02-20T22:26:20.607Z,4.43
2023-02-20T22:28:37.188Z,4.70
2023-02-20T22:30:54.596Z,5.20
2023-02-20T22:33:11.114Z,5.22
2023-02-20T22:35:27.657Z,5.38
2023-02-20T22:37:44.496Z,5.35
2023-02-20T22:40:00.867Z,5.22
2023-02-20T22:42:20.676Z,5.13
2023-02-20T22:44:39.671Z,5.30
2023-02-20T22:46:56.396Z,5.20
2023-02-20T22:49:13.190Z,5.07
2023-02-20T22:51:29.498Z,5.13
2023-02-20T22:53:45.816Z,4.50
2023-02-20T22:56:02.325Z,5.13
2023-02-20T22:58:19.164Z,4.63
2023-02-20T23:00:35.596Z,5.18
2023-02-20T23:02:51.944Z,4.90
2023-02-20T23:05:08.672Z,4.80
2023-02-20T23:07:25.086Z,4.95
2023-02-20T23:09:41.393Z,4.80
2023-02-20T23:11:57.761Z,4.95
2023-02-20T23:14:14.324Z,5.03
2023-02-20T23:16:30.821Z,4.80
2023-02-20T23:18:47.259Z,4.88
2023-02-20T23:21:03.961Z,5.05
2023-02-20T23:23:20.504Z,4.55
2023-02-20T23:25:37.218Z,4.45
2023-02-20T23:27:53.753Z,5.05
2023-02-20T23:30:10.155Z,5.32
2023-02-20T23:32:26.765Z,5.47
2023-02-20T23:34:43.569Z,5.22
2023-02-20T23:36:59.947Z,4.43
2023-02-20T23:39:16.693Z,4.72
2023-02-20T23:41:33.393Z,5.10
2023-02-20T23:43:50.143Z,5.10
2023-02-20T23:46:06.944Z,4.93
2023-02-20T23:48:23.660Z,5.15
2023-02-20T23:50:40.203Z,4.75
2023-02-20T23:52:56.550Z,5.00
2023-02-20T23:55:13.347Z,5.28
2023-02-20T23:57:29.833Z,4.65
2023-02-20T23:59:46.545Z,4.85
